sensor_id;sensor_type;location;lat;lon;timestamp;temperature;humidity
18160;DHT22;9205;52.032;4.314;2022-08-18T00:00:31;20.10;99.90
18160;DHT22;9205;52.032;4.314;2022-08-18T00:03:04;20.00;99.90
18160;DHT22;9205;52.032;4.314;2022-08-18T00:05:33;19.80;99.90
18160;DHT22;9205;52.032;4.314;2022-08-18T00:08:01;20.10;99.90
18160;DHT22;9205;52.032;4.314;2022-08-18T00:10:30;20.00;99.90
18160;DHT22;9205;52.032;4.314;2022-08-18T00:12:58;19.90;99.90
18160;DHT22;9205;52.032;4.314;2022-08-18T00:15:26;19.90;99.90
18160;DHT22;9205;52.032;4.314;2022-08-18T00:17:54;20.00;99.90
18160;DHT22;9205;52.032;4.314;2022-08-18T00:20:23;20.10;99.90
18160;DHT22;9205;52.032;4.314;2022-08-18T00:22:51;20.10;99.90
18160;DHT22;9205;52.032;4.314;2022-08-18T00:25:21;19.80;99.90
18160;DHT22;9205;52.032;4.314;2022-08-18T00:27:50;19.90;99.90
18160;DHT22;9205;52.032;4.314;2022-08-18T00:30:19;20.10;99.90
18160;DHT22;9205;52.032;4.314;2022-08-18T00:32:49;19.90;99.90
18160;DHT22;9205;52.032;4.314;2022-08-18T00:35:20;20.10;99.90
18160;DHT22;9205;52.032;4.314;2022-08-18T00:37:51;20.00;99.90
18160;DHT22;9205;52.032;4.314;2022-08-18T00:40:22;19.80;99.90
18160;DHT22;9205;52.032;4.314;2022-08-18T00:42:54;19.90;99.90
18160;DHT22;9205;52.032;4.314;2022-08-18T00:45:27;19.80;99.90
18160;DHT22;9205;52.032;4.314;2022-08-18T00:47:59;20.00;99.90
18160;DHT22;9205;52.032;4.314;2022-08-18T00:50:31;20.10;99.90
18160;DHT22;9205;52.032;4.314;2022-08-18T00:53:08;20.10;99.90
18160;DHT22;9205;52.032;4.314;2022-08-18T00:55:39;19.60;99.90
18160;DHT22;9205;52.032;4.314;2022-08-18T00:58:14;19.60;99.90
18160;DHT22;9205;52.032;4.314;2022-08-18T01:00:45;20.00;99.90
18160;DHT22;9205;52.032;4.314;2022-08-18T01:03:18;19.80;99.90
18160;DHT22;9205;52.032;4.314;2022-08-18T01:05:52;19.60;99.90
18160;DHT22;9205;52.032;4.314;2022-08-18T01:08:23;19.60;99.90
18160;DHT22;9205;52.032;4.314;2022-08-18T01:10:52;19.80;99.90
18160;DHT22;9205;52.032;4.314;2022-08-18T01:13:20;19.50;99.90
18160;DHT22;9205;52.032;4.314;2022-08-18T01:15:53;19.60;99.90
18160;DHT22;9205;52.032;4.314;2022-08-18T01:18:21;19.40;99.90
18160;DHT22;9205;52.032;4.314;2022-08-18T01:21:12;19.50;99.90
18160;DHT22;9205;52.032;4.314;2022-08-18T01:24:06;19.60;99.90
18160;DHT22;9205;52.032;4.314;2022-08-18T01:26:39;19.40;99.90
18160;DHT22;9205;52.032;4.314;2022-08-18T01:29:15;19.60;99.90
18160;DHT22;9205;52.032;4.314;2022-08-18T01:31:48;19.60;99.90
18160;DHT22;9205;52.032;4.314;2022-08-18T01:34:21;19.40;99.90
18160;DHT22;9205;52.032;4.314;2022-08-18T01:36:50;19.60;99.90
18160;DHT22;9205;52.032;4.314;2022-08-18T01:39:21;19.60;99.90
18160;DHT22;9205;52.032;4.314;2022-08-18T01:41:49;19.50;99.90
18160;DHT22;9205;52.032;4.314;2022-08-18T01:44:17;19.60;99.90
18160;DHT22;9205;52.032;4.314;2022-08-18T01:46:44;19.30;99.90
18160;DHT22;9205;52.032;4.314;2022-08-18T01:49:11;19.50;99.90
18160;DHT22;9205;52.032;4.314;2022-08-18T01:51:42;19.30;99.90
18160;DHT22;9205;52.032;4.314;2022-08-18T01:54:13;19.20;99.90
18160;DHT22;9205;52.032;4.314;2022-08-18T01:56:42;19.20;99.90
18160;DHT22;9205;52.032;4.314;2022-08-18T01:59:10;19.20;99.90
18160;DHT22;9205;52.032;4.314;2022-08-18T02:01:43;19.50;99.90
18160;DHT22;9205;52.032;4.314;2022-08-18T02:04:14;19.30;99.90
18160;DHT22;9205;52.032;4.314;2022-08-18T02:06:42;19.50;99.90
18160;DHT22;9205;52.032;4.314;2022-08-18T02:09:09;19.30;99.90
18160;DHT22;9205;52.032;4.314;2022-08-18T02:11:37;19.30;99.90
18160;DHT22;9205;52.032;4.314;2022-08-18T02:14:05;19.20;99.90
18160;DHT22;9205;52.032;4.314;2022-08-18T02:16:32;19.20;99.90
18160;DHT22;9205;52.032;4.314;2022-08-18T02:19:00;19.40;99.90
18160;DHT22;9205;52.032;4.314;2022-08-18T02:21:28;19.10;99.90
18160;DHT22;9205;52.032;4.314;2022-08-18T02:23:55;19.20;99.90
18160;DHT22;9205;52.032;4.314;2022-08-18T02:26:22;19.30;99.90
18160;DHT22;9205;52.032;4.314;2022-08-18T02:28:51;19.30;99.90
18160;DHT22;9205;52.032;4.314;2022-08-18T02:31:21;19.10;99.90
18160;DHT22;9205;52.032;4.314;2022-08-18T02:33:50;19.00;99.90
18160;DHT22;9205;52.032;4.314;2022-08-18T02:36:29;19.20;99.90
18160;DHT22;9205;52.032;4.314;2022-08-18T02:38:56;19.10;99.90
18160;DHT22;9205;52.032;4.314;2022-08-18T02:41:25;19.30;99.90
18160;DHT22;9205;52.032;4.314;2022-08-18T02:43:53;19.00;99.90
18160;DHT22;9205;52.032;4.314;2022-08-18T02:46:22;19.30;99.90
18160;DHT22;9205;52.032;4.314;2022-08-18T02:48:50;19.20;99.90
18160;DHT22;9205;52.032;4.314;2022-08-18T02:51:32;19.20;99.90
18160;DHT22;9205;52.032;4.314;2022-08-18T02:54:00;19.10;99.90
18160;DHT22;9205;52.032;4.314;2022-08-18T02:56:29;19.30;99.90
18160;DHT22;9205;52.032;4.314;2022-08-18T02:58:58;19.10;99.90
18160;DHT22;9205;52.032;4.314;2022-08-18T03:01:31;19.50;99.90
18160;DHT22;9205;52.032;4.314;2022-08-18T03:04:00;19.20;99.90
18160;DHT22;9205;52.032;4.314;2022-08-18T03:06:31;19.30;99.90
18160;DHT22;9205;52.032;4.314;2022-08-18T03:09:01;19.20;99.90
18160;DHT22;9205;52.032;4.314;2022-08-18T03:11:29;19.60;99.90
18160;DHT22;9205;52.032;4.314;2022-08-18T03:13:56;19.50;99.90
18160;DHT22;9205;52.032;4.314;2022-08-18T03:16:25;19.50;99.90
18160;DHT22;9205;52.032;4.314;2022-08-18T03:18:57;19.30;99.90
18160;DHT22;9205;52.032;4.314;2022-08-18T03:21:26;19.40;99.90
18160;DHT22;9205;52.032;4.314;2022-08-18T03:23:55;19.30;99.90
18160;DHT22;9205;52.032;4.314;2022-08-18T03:26:24;19.30;99.90
18160;DHT22;9205;52.032;4.314;2022-08-18T03:28:53;19.40;99.90
18160;DHT22;9205;52.032;4.314;2022-08-18T03:31:31;19.60;99.90
18160;DHT22;9205;52.032;4.314;2022-08-18T03:34:06;19.60;99.90
18160;DHT22;9205;52.032;4.314;2022-08-18T03:36:34;19.40;99.90
18160;DHT22;9205;52.032;4.314;2022-08-18T03:39:03;19.40;99.90
18160;DHT22;9205;52.032;4.314;2022-08-18T03:41:37;19.60;99.90
18160;DHT22;9205;52.032;4.314;2022-08-18T03:44:08;19.80;99.90
18160;DHT22;9205;52.032;4.314;2022-08-18T03:46:39;19.60;99.90
18160;DHT22;9205;52.032;4.314;2022-08-18T03:49:10;19.90;99.90
18160;DHT22;9205;52.032;4.314;2022-08-18T03:51:41;19.60;99.90
18160;DHT22;9205;52.032;4.314;2022-08-18T03:54:14;19.90;99.90
18160;DHT22;9205;52.032;4.314;2022-08-18T03:56:44;19.50;99.90
18160;DHT22;9205;52.032;4.314;2022-08-18T03:59:15;19.70;99.90
18160;DHT22;9205;52.032;4.314;2022-08-18T04:02:02;20.00;99.90
18160;DHT22;9205;52.032;4.314;2022-08-18T04:04:32;19.50;99.90
18160;DHT22;9205;52.032;4.314;2022-08-18T04:07:01;19.40;99.90
18160;DHT22;9205;52.032;4.314;2022-08-18T04:09:34;19.70;99.90
18160;DHT22;9205;52.032;4.314;2022-08-18T04:12:04;19.70;99.90
18160;DHT22;9205;52.032;4.314;2022-08-18T04:14:38;19.70;99.90
18160;DHT22;9205;52.032;4.314;2022-08-18T04:17:05;19.40;99.90
18160;DHT22;9205;52.032;4.314;2022-08-18T04:19:35;19.60;99.90
18160;DHT22;9205;52.032;4.314;2022-08-18T04:22:03;19.70;99.90
18160;DHT22;9205;52.032;4.314;2022-08-18T04:24:32;19.60;99.90
18160;DHT22;9205;52.032;4.314;2022-08-18T04:27:01;19.30;99.90
18160;DHT22;9205;52.032;4.314;2022-08-18T04:29:30;19.40;99.90
18160;DHT22;9205;52.032;4.314;2022-08-18T04:31:59;19.60;99.90
18160;DHT22;9205;52.032;4.314;2022-08-18T04:34:30;19.50;99.90
18160;DHT22;9205;52.032;4.314;2022-08-18T04:36:59;19.80;99.90
18160;DHT22;9205;52.032;4.314;2022-08-18T04:39:27;19.80;99.90
18160;DHT22;9205;52.032;4.314;2022-08-18T04:41:55;19.50;99.90
18160;DHT22;9205;52.032;4.314;2022-08-18T04:44:23;19.60;99.90
18160;DHT22;9205;52.032;4.314;2022-08-18T04:46:52;19.80;99.90
18160;DHT22;9205;52.032;4.314;2022-08-18T04:49:22;19.50;99.90
18160;DHT22;9205;52.032;4.314;2022-08-18T04:51:52;19.60;99.90
18160;DHT22;9205;52.032;4.314;2022-08-18T04:54:41;19.90;99.90
18160;DHT22;9205;52.032;4.314;2022-08-18T04:57:13;19.70;99.90
18160;DHT22;9205;52.032;4.314;2022-08-18T04:59:43;19.70;99.90
18160;DHT22;9205;52.032;4.314;2022-08-18T05:02:13;19.70;99.90
18160;DHT22;9205;52.032;4.314;2022-08-18T05:04:43;19.80;99.90
18160;DHT22;9205;52.032;4.314;2022-08-18T05:07:13;19.60;99.90
18160;DHT22;9205;52.032;4.314;2022-08-18T05:09:45;19.80;99.90
18160;DHT22;9205;52.032;4.314;2022-08-18T05:12:14;19.80;99.90
18160;DHT22;9205;52.032;4.314;2022-08-18T05:14:43;19.60;99.90
18160;DHT22;9205;52.032;4.314;2022-08-18T05:17:28;19.70;99.90
18160;DHT22;9205;52.032;4.314;2022-08-18T05:19:56;19.80;99.90
18160;DHT22;9205;52.032;4.314;2022-08-18T05:22:26;19.90;99.90
18160;DHT22;9205;52.032;4.314;2022-08-18T05:24:55;20.10;99.90
18160;DHT22;9205;52.032;4.314;2022-08-18T05:27:30;20.00;99.90
18160;DHT22;9205;52.032;4.314;2022-08-18T05:29:58;19.90;99.90
18160;DHT22;9205;52.032;4.314;2022-08-18T05:32:27;19.80;99.90
18160;DHT22;9205;52.032;4.314;2022-08-18T05:34:56;19.70;99.90
18160;DHT22;9205;52.032;4.314;2022-08-18T05:37:30;19.80;99.90
18160;DHT22;9205;52.032;4.314;2022-08-18T05:40:05;19.80;99.90
18160;DHT22;9205;52.032;4.314;2022-08-18T05:42:35;19.80;99.90
18160;DHT22;9205;52.032;4.314;2022-08-18T05:45:09;20.00;99.90
18160;DHT22;9205;52.032;4.314;2022-08-18T05:47:41;20.00;99.90
18160;DHT22;9205;52.032;4.314;2022-08-18T05:50:12;19.80;99.90
18160;DHT22;9205;52.032;4.314;2022-08-18T05:52:47;19.90;99.90
18160;DHT22;9205;52.032;4.314;2022-08-18T05:55:26;20.00;99.90
18160;DHT22;9205;52.032;4.314;2022-08-18T05:58:20;20.00;99.90
18160;DHT22;9205;52.032;4.314;2022-08-18T06:00:52;19.90;99.90
18160;DHT22;9205;52.032;4.314;2022-08-18T06:03:26;19.70;99.90
18160;DHT22;9205;52.032;4.314;2022-08-18T06:06:09;19.70;99.90
18160;DHT22;9205;52.032;4.314;2022-08-18T06:08:42;19.90;99.90
18160;DHT22;9205;52.032;4.314;2022-08-18T06:11:16;19.80;99.90
18160;DHT22;9205;52.032;4.314;2022-08-18T06:13:44;20.10;99.90
18160;DHT22;9205;52.032;4.314;2022-08-18T06:16:17;19.90;99.90
18160;DHT22;9205;52.032;4.314;2022-08-18T06:18:55;20.00;99.90
18160;DHT22;9205;52.032;4.314;2022-08-18T06:21:37;19.80;99.90
18160;DHT22;9205;52.032;4.314;2022-08-18T06:24:20;19.90;99.90
18160;DHT22;9205;52.032;4.314;2022-08-18T06:26:59;19.80;99.90
18160;DHT22;9205;52.032;4.314;2022-08-18T06:29:54;20.10;99.90
18160;DHT22;9205;52.032;4.314;2022-08-18T06:32:41;19.90;99.90
18160;DHT22;9205;52.032;4.314;2022-08-18T06:35:28;19.90;99.90
18160;DHT22;9205;52.032;4.314;2022-08-18T06:38:16;19.90;99.90
18160;DHT22;9205;52.032;4.314;2022-08-18T06:41:11;20.00;99.90
18160;DHT22;9205;52.032;4.314;2022-08-18T06:43:52;20.20;99.90
18160;DHT22;9205;52.032;4.314;2022-08-18T06:46:37;20.10;99.90
18160;DHT22;9205;52.032;4.314;2022-08-18T06:49:09;20.30;99.90
18160;DHT22;9205;52.032;4.314;2022-08-18T06:51:38;20.50;99.90
18160;DHT22;9205;52.032;4.314;2022-08-18T06:54:07;20.70;99.90
18160;DHT22;9205;52.032;4.314;2022-08-18T06:56:54;20.50;99.90
18160;DHT22;9205;52.032;4.314;2022-08-18T06:59:25;20.70;99.90
18160;DHT22;9205;52.032;4.314;2022-08-18T07:01:57;20.60;99.90
18160;DHT22;9205;52.032;4.314;2022-08-18T07:04:43;20.50;99.90
18160;DHT22;9205;52.032;4.314;2022-08-18T07:07:32;20.30;99.90
18160;DHT22;9205;52.032;4.314;2022-08-18T07:10:01;20.50;99.90
18160;DHT22;9205;52.032;4.314;2022-08-18T07:12:29;20.50;99.90
18160;DHT22;9205;52.032;4.314;2022-08-18T07:15:00;20.40;99.90
18160;DHT22;9205;52.032;4.314;2022-08-18T07:17:30;20.80;99.90
18160;DHT22;9205;52.032;4.314;2022-08-18T07:20:04;20.50;99.90
18160;DHT22;9205;52.032;4.314;2022-08-18T07:22:53;20.90;99.90
18160;DHT22;9205;52.032;4.314;2022-08-18T07:25:29;20.80;99.90
18160;DHT22;9205;52.032;4.314;2022-08-18T07:27:59;20.80;99.90
18160;DHT22;9205;52.032;4.314;2022-08-18T07:30:32;20.90;99.90
18160;DHT22;9205;52.032;4.314;2022-08-18T07:33:09;20.80;99.90
18160;DHT22;9205;52.032;4.314;2022-08-18T07:35:49;20.90;99.90
18160;DHT22;9205;52.032;4.314;2022-08-18T07:38:25;20.70;99.90
18160;DHT22;9205;52.032;4.314;2022-08-18T07:41:01;21.00;99.90
18160;DHT22;9205;52.032;4.314;2022-08-18T07:43:36;20.80;99.90
18160;DHT22;9205;52.032;4.314;2022-08-18T07:46:12;20.60;99.90
18160;DHT22;9205;52.032;4.314;2022-08-18T07:52:11;20.70;99.90
18160;DHT22;9205;52.032;4.314;2022-08-18T07:55:01;20.60;99.90
18160;DHT22;9205;52.032;4.314;2022-08-18T08:00:58;21.20;99.90
18160;DHT22;9205;52.032;4.314;2022-08-18T08:03:49;21.10;99.90
18160;DHT22;9205;52.032;4.314;2022-08-18T08:06:32;21.40;99.90
18160;DHT22;9205;52.032;4.314;2022-08-18T08:09:23;21.40;99.90
18160;DHT22;9205;52.032;4.314;2022-08-18T08:12:16;21.40;99.90
18160;DHT22;9205;52.032;4.314;2022-08-18T08:14:57;21.50;99.90
18160;DHT22;9205;52.032;4.314;2022-08-18T08:17:49;21.60;99.90
18160;DHT22;9205;52.032;4.314;2022-08-18T08:20:34;21.70;99.90
18160;DHT22;9205;52.032;4.314;2022-08-18T08:23:20;21.70;99.90
18160;DHT22;9205;52.032;4.314;2022-08-18T08:29:13;21.50;99.90
18160;DHT22;9205;52.032;4.314;2022-08-18T08:31:58;21.30;99.90
18160;DHT22;9205;52.032;4.314;2022-08-18T08:34:38;21.40;99.90
18160;DHT22;9205;52.032;4.314;2022-08-18T08:37:22;21.60;99.90
18160;DHT22;9205;52.032;4.314;2022-08-18T08:40:03;21.80;99.90
18160;DHT22;9205;52.032;4.314;2022-08-18T08:42:38;21.90;99.90
18160;DHT22;9205;52.032;4.314;2022-08-18T08:45:17;21.90;99.90
18160;DHT22;9205;52.032;4.314;2022-08-18T08:47:58;21.70;99.90
18160;DHT22;9205;52.032;4.314;2022-08-18T08:50:35;22.00;99.90
18160;DHT22;9205;52.032;4.314;2022-08-18T08:53:20;21.70;99.90
18160;DHT22;9205;52.032;4.314;2022-08-18T08:55:55;21.90;99.90
18160;DHT22;9205;52.032;4.314;2022-08-18T08:58:28;21.80;99.90
18160;DHT22;9205;52.032;4.314;2022-08-18T09:01:25;21.80;99.90
18160;DHT22;9205;52.032;4.314;2022-08-18T09:04:04;21.90;99.90
18160;DHT22;9205;52.032;4.314;2022-08-18T09:07:07;21.80;99.90
18160;DHT22;9205;52.032;4.314;2022-08-18T09:10:23;22.00;99.90
18160;DHT22;9205;52.032;4.314;2022-08-18T09:13:45;21.80;99.90
18160;DHT22;9205;52.032;4.314;2022-08-18T09:16:38;21.80;99.90
18160;DHT22;9205;52.032;4.314;2022-08-18T09:19:34;22.00;99.90
18160;DHT22;9205;52.032;4.314;2022-08-18T09:22:47;21.80;99.90
18160;DHT22;9205;52.032;4.314;2022-08-18T09:25:43;22.00;99.90
18160;DHT22;9205;52.032;4.314;2022-08-18T09:28:20;22.20;99.90
18160;DHT22;9205;52.032;4.314;2022-08-18T09:31:19;22.20;99.90
18160;DHT22;9205;52.032;4.314;2022-08-18T09:34:16;22.10;99.90
18160;DHT22;9205;52.032;4.314;2022-08-18T09:37:02;22.20;99.90
18160;DHT22;9205;52.032;4.314;2022-08-18T09:39:54;22.30;99.90
18160;DHT22;9205;52.032;4.314;2022-08-18T09:42:47;22.00;99.90
18160;DHT22;9205;52.032;4.314;2022-08-18T09:45:56;22.00;99.90
18160;DHT22;9205;52.032;4.314;2022-08-18T09:48:30;22.20;99.90
18160;DHT22;9205;52.032;4.314;2022-08-18T09:51:33;22.00;99.90
18160;DHT22;9205;52.032;4.314;2022-08-18T09:54:17;22.30;99.90
18160;DHT22;9205;52.032;4.314;2022-08-18T09:57:15;22.20;99.90
18160;DHT22;9205;52.032;4.314;2022-08-18T09:59:56;22.40;99.90
18160;DHT22;9205;52.032;4.314;2022-08-18T10:03:22;22.40;99.90
18160;DHT22;9205;52.032;4.314;2022-08-18T10:06:06;22.00;99.90
18160;DHT22;9205;52.032;4.314;2022-08-18T10:09:15;22.20;99.90
18160;DHT22;9205;52.032;4.314;2022-08-18T10:12:13;22.20;99.90
18160;DHT22;9205;52.032;4.314;2022-08-18T10:15:07;22.20;99.90
18160;DHT22;9205;52.032;4.314;2022-08-18T10:18:25;22.50;99.90
18160;DHT22;9205;52.032;4.314;2022-08-18T10:21:10;22.20;99.90
18160;DHT22;9205;52.032;4.314;2022-08-18T10:24:15;22.40;99.90
18160;DHT22;9205;52.032;4.314;2022-08-18T10:27:10;22.50;99.90
18160;DHT22;9205;52.032;4.314;2022-08-18T10:30:03;22.40;99.90
18160;DHT22;9205;52.032;4.314;2022-08-18T10:32:38;22.50;99.90
18160;DHT22;9205;52.032;4.314;2022-08-18T10:38:41;22.20;99.90
18160;DHT22;9205;52.032;4.314;2022-08-18T10:41:28;22.20;99.90
18160;DHT22;9205;52.032;4.314;2022-08-18T10:44:00;22.30;99.90
18160;DHT22;9205;52.032;4.314;2022-08-18T10:46:34;22.20;99.90
18160;DHT22;9205;52.032;4.314;2022-08-18T10:49:21;22.10;99.90
18160;DHT22;9205;52.032;4.314;2022-08-18T10:52:17;22.20;99.90
18160;DHT22;9205;52.032;4.314;2022-08-18T10:55:35;22.20;99.90
18160;DHT22;9205;52.032;4.314;2022-08-18T10:58:46;22.20;99.90
18160;DHT22;9205;52.032;4.314;2022-08-18T11:01:42;22.30;99.90
18160;DHT22;9205;52.032;4.314;2022-08-18T11:04:25;22.60;99.90
18160;DHT22;9205;52.032;4.314;2022-08-18T11:07:04;22.80;99.90
18160;DHT22;9205;52.032;4.314;2022-08-18T11:09:36;23.20;99.90
18160;DHT22;9205;52.032;4.314;2022-08-18T11:12:15;23.40;99.90
18160;DHT22;9205;52.032;4.314;2022-08-18T11:15:28;23.90;99.90
18160;DHT22;9205;52.032;4.314;2022-08-18T11:18:21;24.80;99.90
18160;DHT22;9205;52.032;4.314;2022-08-18T11:21:22;25.40;99.90
18160;DHT22;9205;52.032;4.314;2022-08-18T11:24:08;24.90;99.90
18160;DHT22;9205;52.032;4.314;2022-08-18T11:26:50;24.30;99.90
18160;DHT22;9205;52.032;4.314;2022-08-18T11:29:42;23.80;99.90
18160;DHT22;9205;52.032;4.314;2022-08-18T11:32:19;23.80;99.90
18160;DHT22;9205;52.032;4.314;2022-08-18T11:35:02;24.40;99.90
18160;DHT22;9205;52.032;4.314;2022-08-18T11:38:09;24.60;99.90
18160;DHT22;9205;52.032;4.314;2022-08-18T11:44:29;24.60;99.90
18160;DHT22;9205;52.032;4.314;2022-08-18T11:47:10;24.50;99.90
18160;DHT22;9205;52.032;4.314;2022-08-18T11:50:05;24.30;99.90
18160;DHT22;9205;52.032;4.314;2022-08-18T11:52:49;24.40;99.90
18160;DHT22;9205;52.032;4.314;2022-08-18T11:55:21;24.50;99.90
18160;DHT22;9205;52.032;4.314;2022-08-18T11:57:59;24.60;99.90
18160;DHT22;9205;52.032;4.314;2022-08-18T12:03:35;24.70;99.90
18160;DHT22;9205;52.032;4.314;2022-08-18T12:06:59;24.90;99.90
18160;DHT22;9205;52.032;4.314;2022-08-18T12:09:40;25.30;99.90
18160;DHT22;9205;52.032;4.314;2022-08-18T12:12:23;25.50;99.90
18160;DHT22;9205;52.032;4.314;2022-08-18T12:14:55;25.70;99.90
18160;DHT22;9205;52.032;4.314;2022-08-18T12:17:26;25.90;99.90
18160;DHT22;9205;52.032;4.314;2022-08-18T12:19:55;25.70;99.90
18160;DHT22;9205;52.032;4.314;2022-08-18T12:22:26;25.80;99.90
18160;DHT22;9205;52.032;4.314;2022-08-18T12:24:56;25.60;99.90
18160;DHT22;9205;52.032;4.314;2022-08-18T12:27:26;25.40;99.90
18160;DHT22;9205;52.032;4.314;2022-08-18T12:30:16;25.30;99.90
18160;DHT22;9205;52.032;4.314;2022-08-18T12:32:56;25.30;99.90
18160;DHT22;9205;52.032;4.314;2022-08-18T12:35:24;25.30;99.90
18160;DHT22;9205;52.032;4.314;2022-08-18T12:37:57;25.10;99.90
18160;DHT22;9205;52.032;4.314;2022-08-18T12:40:25;24.90;99.90
18160;DHT22;9205;52.032;4.314;2022-08-18T12:42:53;25.10;99.90
18160;DHT22;9205;52.032;4.314;2022-08-18T12:45:23;25.20;99.90
18160;DHT22;9205;52.032;4.314;2022-08-18T12:47:53;25.30;99.90
18160;DHT22;9205;52.032;4.314;2022-08-18T12:50:21;25.40;99.90
18160;DHT22;9205;52.032;4.314;2022-08-18T12:53:06;25.40;99.90
18160;DHT22;9205;52.032;4.314;2022-08-18T12:55:37;25.40;99.90
18160;DHT22;9205;52.032;4.314;2022-08-18T12:58:09;25.40;99.90
18160;DHT22;9205;52.032;4.314;2022-08-18T13:00:37;25.40;99.90
18160;DHT22;9205;52.032;4.314;2022-08-18T13:03:15;25.40;99.90
18160;DHT22;9205;52.032;4.314;2022-08-18T13:05:50;25.50;99.90
18160;DHT22;9205;52.032;4.314;2022-08-18T13:08:26;25.50;99.90
18160;DHT22;9205;52.032;4.314;2022-08-18T13:10:54;25.50;99.90
18160;DHT22;9205;52.032;4.314;2022-08-18T13:13:25;25.60;99.90
18160;DHT22;9205;52.032;4.314;2022-08-18T13:15:59;25.70;99.90
18160;DHT22;9205;52.032;4.314;2022-08-18T13:18:34;25.70;99.90
18160;DHT22;9205;52.032;4.314;2022-08-18T13:21:03;25.50;99.90
18160;DHT22;9205;52.032;4.314;2022-08-18T13:23:36;25.50;99.90
18160;DHT22;9205;52.032;4.314;2022-08-18T13:26:08;25.50;99.90
18160;DHT22;9205;52.032;4.314;2022-08-18T13:28:40;25.60;99.90
18160;DHT22;9205;52.032;4.314;2022-08-18T13:31:07;25.60;99.90
18160;DHT22;9205;52.032;4.314;2022-08-18T13:33:41;25.50;99.90
18160;DHT22;9205;52.032;4.314;2022-08-18T13:36:08;25.40;99.90
18160;DHT22;9205;52.032;4.314;2022-08-18T13:39:05;25.40;99.90
18160;DHT22;9205;52.032;4.314;2022-08-18T13:41:33;25.50;99.90
18160;DHT22;9205;52.032;4.314;2022-08-18T13:44:00;25.30;99.90
18160;DHT22;9205;52.032;4.314;2022-08-18T13:46:28;25.30;99.90
18160;DHT22;9205;52.032;4.314;2022-08-18T13:48:57;25.30;99.90
18160;DHT22;9205;52.032;4.314;2022-08-18T13:51:30;25.30;99.90
18160;DHT22;9205;52.032;4.314;2022-08-18T13:54:00;25.30;99.90
18160;DHT22;9205;52.032;4.314;2022-08-18T13:56:30;25.30;99.90
18160;DHT22;9205;52.032;4.314;2022-08-18T13:58:58;25.40;99.90
18160;DHT22;9205;52.032;4.314;2022-08-18T14:01:25;25.40;99.90
18160;DHT22;9205;52.032;4.314;2022-08-18T14:03:55;25.50;99.90
18160;DHT22;9205;52.032;4.314;2022-08-18T14:06:23;25.60;99.90
18160;DHT22;9205;52.032;4.314;2022-08-18T14:08:53;25.60;99.90
18160;DHT22;9205;52.032;4.314;2022-08-18T14:11:24;25.50;99.90
18160;DHT22;9205;52.032;4.314;2022-08-18T14:13:56;25.50;99.90
18160;DHT22;9205;52.032;4.314;2022-08-18T14:16:26;25.20;99.90
18160;DHT22;9205;52.032;4.314;2022-08-18T14:18:54;25.20;99.90
18160;DHT22;9205;52.032;4.314;2022-08-18T14:21:41;25.10;99.90
18160;DHT22;9205;52.032;4.314;2022-08-18T14:24:29;25.30;99.90
18160;DHT22;9205;52.032;4.314;2022-08-18T14:27:14;25.30;99.90
18160;DHT22;9205;52.032;4.314;2022-08-18T14:29:43;25.40;99.90
18160;DHT22;9205;52.032;4.314;2022-08-18T14:32:18;25.50;99.90
18160;DHT22;9205;52.032;4.314;2022-08-18T14:34:48;25.30;99.90
18160;DHT22;9205;52.032;4.314;2022-08-18T14:37:16;25.30;99.90
18160;DHT22;9205;52.032;4.314;2022-08-18T14:39:49;25.20;99.90
18160;DHT22;9205;52.032;4.314;2022-08-18T14:42:17;25.10;99.90
18160;DHT22;9205;52.032;4.314;2022-08-18T14:44:50;25.10;99.90
18160;DHT22;9205;52.032;4.314;2022-08-18T14:47:17;25.00;99.90
18160;DHT22;9205;52.032;4.314;2022-08-18T14:50:01;24.90;99.90
18160;DHT22;9205;52.032;4.314;2022-08-18T14:52:29;24.70;99.90
18160;DHT22;9205;52.032;4.314;2022-08-18T14:55:07;24.50;99.90
18160;DHT22;9205;52.032;4.314;2022-08-18T14:57:41;24.50;99.90
18160;DHT22;9205;52.032;4.314;2022-08-18T15:00:17;24.30;99.90
18160;DHT22;9205;52.032;4.314;2022-08-18T15:02:46;24.30;99.90
18160;DHT22;9205;52.032;4.314;2022-08-18T15:05:16;24.30;99.90
18160;DHT22;9205;52.032;4.314;2022-08-18T15:08:04;24.20;99.90
18160;DHT22;9205;52.032;4.314;2022-08-18T15:10:32;24.10;99.90
18160;DHT22;9205;52.032;4.314;2022-08-18T15:13:03;24.00;99.90
18160;DHT22;9205;52.032;4.314;2022-08-18T15:15:32;24.00;99.90
18160;DHT22;9205;52.032;4.314;2022-08-18T15:18:00;24.00;99.90
18160;DHT22;9205;52.032;4.314;2022-08-18T15:20:28;24.00;99.90
18160;DHT22;9205;52.032;4.314;2022-08-18T15:22:59;23.90;99.90
18160;DHT22;9205;52.032;4.314;2022-08-18T15:25:46;24.00;99.90
18160;DHT22;9205;52.032;4.314;2022-08-18T15:28:32;24.10;99.90
18160;DHT22;9205;52.032;4.314;2022-08-18T15:31:01;24.10;99.90
18160;DHT22;9205;52.032;4.314;2022-08-18T15:33:32;24.10;99.90
18160;DHT22;9205;52.032;4.314;2022-08-18T15:36:00;24.30;99.90
18160;DHT22;9205;52.032;4.314;2022-08-18T15:38:32;24.20;99.90
18160;DHT22;9205;52.032;4.314;2022-08-18T15:41:00;24.10;99.90
18160;DHT22;9205;52.032;4.314;2022-08-18T15:43:29;24.20;99.90
18160;DHT22;9205;52.032;4.314;2022-08-18T15:46:22;24.40;99.90
18160;DHT22;9205;52.032;4.314;2022-08-18T15:49:11;24.30;99.90
18160;DHT22;9205;52.032;4.314;2022-08-18T15:51:40;24.30;99.90
18160;DHT22;9205;52.032;4.314;2022-08-18T15:54:11;24.30;99.90
18160;DHT22;9205;52.032;4.314;2022-08-18T15:56:40;24.30;99.90
18160;DHT22;9205;52.032;4.314;2022-08-18T15:59:08;24.40;99.90
18160;DHT22;9205;52.032;4.314;2022-08-18T16:01:37;24.30;99.90
18160;DHT22;9205;52.032;4.314;2022-08-18T16:04:06;24.40;99.90
18160;DHT22;9205;52.032;4.314;2022-08-18T16:06:36;24.40;99.90
18160;DHT22;9205;52.032;4.314;2022-08-18T16:09:12;24.40;99.90
18160;DHT22;9205;52.032;4.314;2022-08-18T16:11:43;24.50;99.90
18160;DHT22;9205;52.032;4.314;2022-08-18T16:14:15;24.50;99.90
18160;DHT22;9205;52.032;4.314;2022-08-18T16:16:44;24.50;99.90
18160;DHT22;9205;52.032;4.314;2022-08-18T16:19:11;24.60;99.90
18160;DHT22;9205;52.032;4.314;2022-08-18T16:22:10;24.40;99.90
18160;DHT22;9205;52.032;4.314;2022-08-18T16:24:41;24.40;99.90
18160;DHT22;9205;52.032;4.314;2022-08-18T16:27:20;24.40;99.90
18160;DHT22;9205;52.032;4.314;2022-08-18T16:29:50;24.30;99.90
18160;DHT22;9205;52.032;4.314;2022-08-18T16:32:23;24.30;99.90
18160;DHT22;9205;52.032;4.314;2022-08-18T16:34:51;24.30;99.90
18160;DHT22;9205;52.032;4.314;2022-08-18T16:37:18;24.10;99.90
18160;DHT22;9205;52.032;4.314;2022-08-18T16:39:47;24.10;99.90
18160;DHT22;9205;52.032;4.314;2022-08-18T16:42:15;24.20;99.90
18160;DHT22;9205;52.032;4.314;2022-08-18T16:44:46;24.30;99.90
18160;DHT22;9205;52.032;4.314;2022-08-18T16:47:21;24.30;99.90
18160;DHT22;9205;52.032;4.314;2022-08-18T16:49:56;24.30;99.90
18160;DHT22;9205;52.032;4.314;2022-08-18T16:52:24;24.40;99.90
18160;DHT22;9205;52.032;4.314;2022-08-18T16:54:53;24.20;99.90
18160;DHT22;9205;52.032;4.314;2022-08-18T16:57:20;24.10;99.90
18160;DHT22;9205;52.032;4.314;2022-08-18T17:00:12;24.10;99.90
18160;DHT22;9205;52.032;4.314;2022-08-18T17:03:03;24.10;99.90